Time;durP1;ratioP1;P1;durP2;ratioP2;P2;SDS_P1;SDS_P2;PMS_P1;PMS_P2;Temp;Humidity;BMP_temperature;BMP_pressure;BME280_temperature;BME280_humidity;BME280_pressure;Samples;Min_cycle;Max_cycle;Signal;HPM_P1;HPM_P2
2022/08/09 00:01:47;;;;;;;8.40;6.10;;;;;;;27.25;40.52;100631.91;116851;1188;21961;-59
2022/08/09 00:04:21;;;;;;;7.50;5.50;;;;;;;27.21;40.64;100636.12;116939;1185;23449;-60
2022/08/09 00:07:01;;;;;;;8.00;5.70;;;;;;;27.17;40.83;100634.64;117004;1188;22104;-59
2022/08/09 00:09:28;;;;;;;9.30;5.90;;;;;;;27.16;40.90;100632.95;117044;1187;22924;-59
2022/08/09 00:11:57;;;;;;;9.90;6.10;;;;;;;27.13;41.00;100633.39;116957;1188;22109;-60
2022/08/09 00:14:30;;;;;;;7.10;6.20;;;;;;;27.10;41.05;100634.10;116852;1187;24246;-67
2022/08/09 00:17:05;;;;;;;9.20;5.90;;;;;;;27.08;41.07;100634.66;116996;1186;22929;-67
2022/08/09 00:19:33;;;;;;;11.30;5.90;;;;;;;27.05;41.29;100634.92;116977;1186;21942;-67
2022/08/09 00:22:01;;;;;;;7.50;6.00;;;;;;;27.02;41.35;100635.10;117030;1187;22899;-68
2022/08/09 00:24:30;;;;;;;7.50;5.60;;;;;;;27.01;41.41;100632.49;117053;1188;21967;-60
2022/08/09 00:26:58;;;;;;;7.50;5.30;;;;;;;26.98;41.54;100630.87;117008;1190;21858;-67
2022/08/09 00:29:26;;;;;;;8.60;5.70;;;;;;;26.98;41.61;100630.92;117188;1188;22913;-59
2022/08/09 00:32:14;;;;;;;8.50;6.50;;;;;;;26.98;41.70;100630.33;116954;1187;22926;-60
2022/08/09 00:34:54;;;;;;;7.90;5.90;;;;;;;26.98;41.78;100632.30;116846;1188;22037;-59
2022/08/09 00:37:21;;;;;;;7.20;5.70;;;;;;;26.99;41.76;100630.29;117007;1188;21855;-58
2022/08/09 00:39:49;;;;;;;8.10;5.80;;;;;;;26.99;41.97;100629.58;116981;1188;22087;-66
2022/08/09 00:42:36;;;;;;;8.10;6.40;;;;;;;26.99;42.02;100632.42;116808;1188;21853;-59
2022/08/09 00:45:23;;;;;;;7.00;5.70;;;;;;;26.99;42.11;100636.03;116978;1186;21978;-67
2022/08/09 00:47:51;;;;;;;11.40;5.50;;;;;;;26.99;42.23;100636.04;117042;1188;21862;-66
2022/08/09 00:50:21;;;;;;;5.80;5.30;;;;;;;27.00;42.28;100636.50;117079;1187;22464;-60
2022/08/09 00:52:48;;;;;;;10.20;5.60;;;;;;;27.00;42.33;100636.11;117107;1188;22745;-59
2022/08/09 00:55:16;;;;;;;6.30;5.10;;;;;;;27.00;42.37;100639.39;116985;1188;21857;-59
2022/08/09 00:58:04;;;;;;;6.40;5.20;;;;;;;27.01;42.34;100637.48;116959;1188;21856;-66
2022/08/09 01:00:37;;;;;;;10.40;5.20;;;;;;;27.02;42.43;100634.75;116853;1189;21867;-59
2022/08/09 01:03:14;;;;;;;6.90;5.70;;;;;;;27.03;42.51;100634.11;116965;1188;21851;-65
2022/08/09 01:06:09;;;;;;;6.40;5.50;;;;;;;27.03;42.61;100630.15;117082;1186;22908;-58
2022/08/09 01:08:54;;;;;;;8.80;6.40;;;;;;;27.01;42.74;100625.84;116900;1184;22173;-58
2022/08/09 01:11:29;;;;;;;6.60;5.60;;;;;;;26.99;42.72;100623.61;117054;1188;21901;-65
2022/08/09 01:14:16;;;;;;;6.70;5.60;;;;;;;26.98;42.94;100622.04;117034;1183;22730;-65
2022/08/09 01:16:45;;;;;;;6.50;5.30;;;;;;;26.95;42.99;100621.39;117066;1188;21919;-58
2022/08/09 01:19:39;;;;;;;6.90;5.10;;;;;;;26.96;43.06;100620.60;117016;1188;22902;-58
2022/08/09 01:22:32;;;;;;;7.10;5.10;;;;;;;26.99;43.07;100622.39;116966;1188;21894;-66
2022/08/09 01:25:25;;;;;;;8.70;5.30;;;;;;;26.98;43.08;100623.69;117043;1186;22928;-65
2022/08/09 01:27:53;;;;;;;6.50;5.10;;;;;;;26.97;43.18;100625.20;117099;1188;23471;-58
2022/08/09 01:30:25;;;;;;;6.50;5.50;;;;;;;26.97;43.21;100623.95;117010;1189;22918;-66
2022/08/09 01:33:01;;;;;;;6.50;4.90;;;;;;;26.97;43.20;100623.95;116992;1184;21864;-65
2022/08/09 01:35:52;;;;;;;6.70;5.70;;;;;;;26.98;43.30;100626.05;116873;1189;23547;-59
2022/08/09 01:38:23;;;;;;;11.30;4.90;;;;;;;26.98;43.39;100628.02;116974;1188;21871;-59
2022/08/09 01:41:30;;;;;;;6.40;4.90;;;;;;;26.99;43.45;100627.37;116985;1188;21970;-65
2022/08/09 01:44:01;;;;;;;8.30;4.90;;;;;;;27.02;43.45;100629.00;116647;1192;23583;-59
2022/08/09 01:46:29;;;;;;;6.70;4.90;;;;;;;27.03;43.44;100628.41;116557;1189;22933;-66
2022/08/09 01:49:01;;;;;;;8.20;5.70;;;;;;;27.02;43.51;100622.67;116776;1192;23550;-59
2022/08/09 01:51:38;;;;;;;8.50;4.70;;;;;;;27.01;43.61;100619.86;116980;1188;22533;-59
2022/08/09 01:54:10;;;;;;;9.80;5.10;;;;;;;26.99;43.64;100618.59;116834;1189;21855;-66
2022/08/09 01:56:38;;;;;;;8.90;5.20;;;;;;;26.97;43.58;100616.58;116771;1191;23022;-59
2022/08/09 01:59:08;;;;;;;6.90;4.80;;;;;;;26.97;43.60;100618.77;116901;1191;21902;-59
2022/08/09 02:01:36;;;;;;;5.90;5.30;;;;;;;26.96;43.66;100621.48;116821;1184;23478;-66
2022/08/09 02:04:23;;;;;;;7.50;5.20;;;;;;;26.95;43.87;100624.45;116866;1183;22629;-59
2022/08/09 02:10:00;;;;;;;8.50;5.90;;;;;;;26.88;43.98;100632.06;116759;1189;21924;-59
2022/08/09 02:12:30;;;;;;;6.80;5.90;;;;;;;26.83;44.13;100639.93;116796;1186;23429;-59
2022/08/09 02:14:58;;;;;;;9.60;5.50;;;;;;;26.81;44.15;100640.27;116860;1189;23001;-59
2022/08/09 02:17:27;;;;;;;6.80;5.50;;;;;;;26.80;44.25;100640.92;116767;1189;23071;-65
2022/08/09 02:20:14;;;;;;;7.40;5.60;;;;;;;26.77;44.34;100641.09;116759;1188;23874;-66
2022/08/09 02:22:54;;;;;;;7.00;5.70;;;;;;;26.77;44.38;100639.84;116819;1189;21860;-59
2022/08/09 02:25:23;;;;;;;8.00;6.10;;;;;;;26.76;44.55;100643.16;116894;1186;23557;-67
2022/08/09 02:27:58;;;;;;;9.00;6.10;;;;;;;26.74;44.52;100643.64;116992;1189;23394;-59
2022/08/09 02:30:32;;;;;;;7.70;6.00;;;;;;;26.73;44.63;100642.67;116804;1188;21987;-59
2022/08/09 02:32:59;;;;;;;7.00;6.10;;;;;;;26.71;44.69;100637.09;116919;1188;21876;-66
2022/08/09 02:35:27;;;;;;;6.70;5.50;;;;;;;26.68;44.77;100634.27;116665;1191;21866;-66
2022/08/09 02:38:14;;;;;;;7.90;5.70;;;;;;;26.66;44.89;100635.69;116844;1186;21861;-59
2022/08/09 02:41:05;;;;;;;6.80;5.70;;;;;;;26.64;44.98;100634.89;116879;1188;21867;-66
2022/08/09 02:43:33;;;;;;;7.00;5.80;;;;;;;26.62;45.00;100631.47;116876;1189;21856;-66
2022/08/09 02:46:20;;;;;;;8.10;6.60;;;;;;;26.61;45.09;100634.98;116873;1189;21856;-59
2022/08/09 02:48:47;;;;;;;10.10;5.90;;;;;;;26.59;45.23;100632.77;116737;1189;23560;-66
2022/08/09 02:51:17;;;;;;;6.60;5.80;;;;;;;26.56;45.29;100635.83;116809;1189;21949;-66
2022/08/09 02:53:47;;;;;;;8.60;5.60;;;;;;;26.55;45.43;100638.44;116990;1189;22940;-66
2022/08/09 02:56:27;;;;;;;7.40;6.00;;;;;;;26.54;45.47;100638.52;116902;1186;21866;-67
2022/08/09 02:58:54;;;;;;;7.60;6.00;;;;;;;26.53;45.61;100639.84;116948;1186;21977;-67
2022/08/09 03:01:21;;;;;;;8.20;6.70;;;;;;;26.52;45.73;100642.48;116860;1188;23611;-67
2022/08/09 03:04:09;;;;;;;9.90;5.90;;;;;;;26.49;45.85;100645.03;116917;1189;21834;-66
2022/08/09 03:06:45;;;;;;;7.80;6.60;;;;;;;26.46;45.95;100646.86;116779;1189;23500;-67
2022/08/09 03:09:15;;;;;;;7.80;6.10;;;;;;;26.44;46.12;100649.36;116891;1187;22889;-67
2022/08/09 03:11:43;;;;;;;8.00;6.00;;;;;;;26.41;46.24;100650.29;116858;1189;21858;-66
2022/08/09 03:14:30;;;;;;;9.50;6.10;;;;;;;26.40;46.24;100651.98;116849;1188;24197;-59
2022/08/09 03:16:58;;;;;;;11.00;7.10;;;;;;;26.40;46.33;100649.67;116791;1186;23452;-59
2022/08/09 03:19:28;;;;;;;14.50;6.70;;;;;;;26.39;46.40;100650.13;116784;1189;22975;-59
2022/08/09 03:22:15;;;;;;;7.30;5.80;;;;;;;26.39;46.52;100650.67;116948;1188;21902;-66
2022/08/09 03:24:57;;;;;;;8.10;6.20;;;;;;;26.39;46.53;100654.45;116758;1188;21946;-59
2022/08/09 03:27:48;;;;;;;8.90;6.10;;;;;;;26.45;46.46;100648.41;116989;1186;22920;-59
2022/08/09 03:30:14;;;;;;;7.70;6.30;;;;;;;26.45;46.57;100648.92;116854;1188;23663;-58
2022/08/09 03:33:05;;;;;;;8.60;6.00;;;;;;;26.33;46.97;100654.67;116679;1192;21867;-66
2022/08/09 03:35:51;;;;;;;8.10;6.70;;;;;;;26.36;46.89;100655.14;116865;1189;21865;-66
2022/08/09 03:38:40;;;;;;;10.10;6.40;;;;;;;26.43;46.96;100654.66;116692;1189;23503;-66
2022/08/09 03:41:13;;;;;;;8.10;5.90;;;;;;;26.39;47.16;100656.70;116851;1189;22929;-59
2022/08/09 03:43:45;;;;;;;9.20;6.70;;;;;;;26.34;47.30;100657.67;116973;1188;21858;-59
2022/08/09 03:46:32;;;;;;;;;;;;;;;26.27;47.26;100655.69;116964;1189;21840;-66
2022/08/09 03:49:01;;;;;;;8.60;6.70;;;;;;;26.28;47.46;100653.05;116860;1188;21947;-66
2022/08/09 03:51:38;;;;;;;9.40;6.70;;;;;;;26.28;47.66;100651.07;116862;1188;22583;-67
2022/08/09 03:54:25;;;;;;;9.30;6.70;;;;;;;26.26;47.70;100652.98;116952;1186;23213;-66
2022/08/09 03:56:56;;;;;;;8.50;6.10;;;;;;;26.27;47.80;100651.35;116911;1189;21901;-66
2022/08/09 03:59:24;;;;;;;7.40;6.10;;;;;;;26.27;47.91;100651.66;117023;1187;21889;-66
2022/08/09 04:02:09;;;;;;;9.10;6.80;;;;;;;26.30;48.10;100651.27;116974;1186;21894;-59
2022/08/09 04:04:36;;;;;;;9.00;6.70;;;;;;;26.30;48.20;100650.39;117059;1187;23710;-66
2022/08/09 04:07:04;;;;;;;7.70;6.90;;;;;;;26.31;48.14;100653.05;116863;1190;22098;-59
2022/08/09 04:09:31;;;;;;;10.00;7.10;;;;;;;26.32;48.26;100653.48;116998;1189;22927;-59
2022/08/09 04:12:31;;;;;;;8.50;6.80;;;;;;;26.34;48.35;100651.16;116994;1190;21855;-59
2022/08/09 04:14:59;;;;;;;8.40;6.70;;;;;;;26.38;48.42;100653.54;116989;1189;23007;-66
2022/08/09 04:17:46;;;;;;;8.80;6.90;;;;;;;26.44;48.41;100649.00;116987;1188;23452;-66
2022/08/09 04:20:14;;;;;;;8.60;6.70;;;;;;;26.50;48.50;100651.03;117033;1189;21875;-66
2022/08/09 04:22:42;;;;;;;9.60;6.50;;;;;;;26.58;48.53;100654.82;117045;1186;21840;-66
2022/08/09 04:25:10;;;;;;;11.40;6.50;;;;;;;26.65;48.56;100654.84;117048;1188;22935;-59
2022/08/09 04:27:41;;;;;;;10.10;6.60;;;;;;;26.73;48.47;100652.08;117037;1188;23499;-59
2022/08/09 04:30:18;;;;;;;6.30;5.70;;;;;;;26.83;48.54;100648.59;116958;1189;21870;-64
2022/08/09 04:32:49;;;;;;;9.40;6.20;;;;;;;26.95;47.98;100648.04;116895;1187;22977;-60
2022/08/09 04:35:17;;;;;;;10.80;5.70;;;;;;;27.16;47.78;100643.36;117074;1188;21925;-64
2022/08/09 04:37:48;;;;;;;8.30;6.60;;;;;;;27.37;47.87;100642.47;116886;1190;23032;-60
2022/08/09 04:40:15;;;;;;;8.70;5.80;;;;;;;27.57;47.75;100638.95;117094;1185;21863;-58
2022/08/09 04:43:02;;;;;;;8.90;6.90;;;;;;;27.79;48.02;100637.54;117020;1189;21864;-66
2022/08/09 04:45:31;;;;;;;7.70;6.20;;;;;;;27.90;47.80;100633.45;117010;1189;22933;-59
2022/08/09 04:48:18;;;;;;;7.60;6.20;;;;;;;27.96;47.86;100629.33;116988;1186;22566;-66
2022/08/09 04:50:45;;;;;;;7.60;6.60;;;;;;;28.00;47.72;100628.82;117030;1186;23557;-59
2022/08/09 04:53:16;;;;;;;9.40;6.70;;;;;;;28.02;47.72;100631.67;117040;1186;21870;-66
2022/08/09 04:55:43;;;;;;;9.80;7.00;;;;;;;28.06;47.68;100634.29;116975;1187;22812;-66
2022/08/09 04:58:26;;;;;;;10.60;6.90;;;;;;;28.13;47.78;100638.63;116855;1189;22999;-65
2022/08/09 05:00:54;;;;;;;9.30;6.70;;;;;;;28.18;47.49;100638.40;117003;1188;21845;-60
2022/08/09 05:03:23;;;;;;;9.20;6.50;;;;;;;28.25;47.56;100638.20;117061;1186;21984;-64
2022/08/09 05:06:12;;;;;;;10.20;7.10;;;;;;;28.33;47.67;100640.95;116912;1189;23611;-66
2022/08/09 05:08:56;;;;;;;8.60;6.90;;;;;;;28.37;47.51;100640.94;117020;1188;22530;-58
2022/08/09 05:11:28;;;;;;;8.00;6.60;;;;;;;28.39;47.38;100642.66;116996;1189;21858;-58
2022/08/09 05:13:58;;;;;;;10.70;6.60;;;;;;;28.38;47.42;100643.27;116961;1188;22094;-64
2022/08/09 05:16:26;;;;;;;7.50;6.00;;;;;;;28.41;47.52;100641.55;116837;1183;22905;-65
2022/08/09 05:18:57;;;;;;;7.60;6.10;;;;;;;28.47;47.56;100637.73;117049;1186;23585;-59
2022/08/09 05:21:27;;;;;;;8.20;6.10;;;;;;;28.56;47.50;100638.98;117069;1189;21889;-58
2022/08/09 05:24:02;;;;;;;9.20;6.70;;;;;;;28.65;47.47;100641.89;116997;1189;23028;-58
2022/08/09 05:26:30;;;;;;;9.00;6.80;;;;;;;28.72;47.38;100643.98;117162;1187;21848;-59
2022/08/09 05:29:18;;;;;;;8.70;6.30;;;;;;;28.88;47.00;100643.20;116960;1187;21855;-58
2022/08/09 05:31:49;;;;;;;10.40;6.50;;;;;;;28.97;46.90;100642.40;116985;1189;22920;-59
2022/08/09 05:34:23;;;;;;;9.50;6.20;;;;;;;29.13;46.70;100638.77;117053;1188;21870;-58
2022/08/09 05:37:01;;;;;;;7.10;6.10;;;;;;;29.12;46.84;100635.20;117122;1186;22095;-58
2022/08/09 05:39:37;;;;;;;13.40;6.70;;;;;;;29.19;46.78;100638.39;116903;1188;21902;-58
2022/08/09 05:42:11;;;;;;;6.70;6.00;;;;;;;29.28;46.71;100645.55;117041;1189;22568;-58
2022/08/09 05:44:59;;;;;;;9.50;6.40;;;;;;;29.42;46.43;100645.80;116876;1187;21901;-66
2022/08/09 05:47:26;;;;;;;9.00;6.30;;;;;;;29.58;46.36;100645.14;117106;1186;24306;-65
2022/08/09 05:49:59;;;;;;;9.40;6.50;;;;;;;29.62;46.39;100643.17;117112;1186;23670;-67
2022/08/09 05:52:46;;;;;;;8.80;6.70;;;;;;;29.59;46.53;100645.45;117072;1186;23474;-66
2022/08/09 05:55:20;;;;;;;7.50;5.80;;;;;;;29.74;46.28;100642.08;117036;1188;22993;-67
2022/08/09 05:57:49;;;;;;;8.10;5.90;;;;;;;29.86;46.46;100644.48;117149;1188;21856;-66
2022/08/09 06:00:25;;;;;;;9.00;6.10;;;;;;;29.92;46.57;100644.33;117067;1189;21859;-67
2022/08/09 06:02:59;;;;;;;6.70;5.80;;;;;;;30.09;46.36;100646.77;116913;1189;21930;-60
2022/08/09 06:05:28;;;;;;;6.30;5.70;;;;;;;30.23;45.91;100647.88;117099;1186;21969;-59
2022/08/09 06:08:16;;;;;;;6.90;5.70;;;;;;;30.36;45.72;100647.63;116944;1189;24181;-66
2022/08/09 06:10:52;;;;;;;15.80;9.30;;;;;;;30.41;45.93;100644.75;116732;1186;22921;-67
2022/08/09 06:13:19;;;;;;;9.50;8.50;;;;;;;30.53;45.72;100646.58;116965;1189;21861;-67
2022/08/09 06:15:50;;;;;;;9.30;7.20;;;;;;;30.66;45.48;100647.58;117086;1186;21855;-60
2022/08/09 06:18:19;;;;;;;6.20;5.60;;;;;;;30.74;45.47;100648.41;117106;1188;21846;-66
2022/08/09 06:20:52;;;;;;;7.20;5.70;;;;;;;30.88;45.40;100650.92;116989;1188;22015;-67
2022/08/09 06:23:24;;;;;;;8.10;5.90;;;;;;;30.96;45.31;100651.86;117050;1186;21855;-60
2022/08/09 06:26:11;;;;;;;7.20;5.50;;;;;;;31.10;45.27;100653.84;116994;1188;21859;-60
2022/08/09 06:28:38;;;;;;;9.10;5.60;;;;;;;31.18;45.08;100650.15;116997;1186;21881;-60
2022/08/09 06:31:09;;;;;;;9.50;6.00;;;;;;;31.22;44.75;100647.79;116786;1186;23000;-67
2022/08/09 06:33:37;;;;;;;6.70;5.70;;;;;;;31.23;44.80;100646.80;116903;1186;22458;-67
2022/08/09 06:36:08;;;;;;;7.90;6.20;;;;;;;31.36;44.88;100647.70;116903;1188;21872;-67
2022/08/09 06:38:39;;;;;;;8.50;6.00;;;;;;;31.53;44.57;100648.03;116878;1188;21896;-67
2022/08/09 06:41:15;;;;;;;9.80;5.60;;;;;;;31.66;44.42;100640.98;117427;1187;21900;-59
2022/08/09 06:43:46;;;;;;;;;;;;;;;31.79;44.33;100637.59;116898;1188;21934;-60
2022/08/09 06:46:14;;;;;;;7.60;5.70;;;;;;;31.93;44.11;100636.09;116983;1186;23594;-59
2022/08/09 06:49:01;;;;;;;7.90;5.70;;;;;;;32.02;43.93;100637.54;117015;1188;21938;-59
2022/08/09 06:51:29;;;;;;;8.50;6.30;;;;;;;32.11;44.01;100630.30;117204;1186;22282;-66
2022/08/09 06:53:57;;;;;;;7.90;5.40;;;;;;;32.24;43.78;100631.00;116842;1189;21868;-60
2022/08/09 06:56:27;;;;;;;7.10;5.90;;;;;;;32.34;43.64;100634.02;117001;1189;23465;-67
2022/08/09 06:58:57;;;;;;;8.50;5.90;;;;;;;32.45;43.44;100635.80;118065;1187;23548;-60
2022/08/09 07:01:45;;;;;;;7.00;5.10;;;;;;;32.67;43.35;100639.08;117020;1188;21884;-67
2022/08/09 07:04:25;;;;;;;6.50;5.80;;;;;;;32.85;43.14;100639.41;116937;1186;21854;-68
2022/08/09 07:06:54;;;;;;;8.00;5.80;;;;;;;32.99;42.90;100639.42;119130;1188;21929;-61
2022/08/09 07:09:27;;;;;;;6.30;5.40;;;;;;;33.17;42.72;100638.13;118829;1184;24165;-58
2022/08/09 07:12:15;;;;;;;8.90;5.50;;;;;;;33.34;42.39;100640.21;117111;1186;22924;-59
2022/08/09 07:14:45;;;;;;;7.20;5.40;;;;;;;33.45;42.30;100641.23;117060;1189;23451;-59
2022/08/09 07:17:19;;;;;;;6.40;5.50;;;;;;;33.60;41.97;100641.98;117001;1189;21864;-59
2022/08/09 07:19:48;;;;;;;6.30;5.40;;;;;;;33.69;41.84;100640.38;117037;1186;21959;-60
2022/08/09 07:22:22;;;;;;;9.00;5.50;;;;;;;33.76;41.53;100636.91;117124;1188;23548;-60
2022/08/09 07:25:05;;;;;;;6.20;5.10;;;;;;;33.82;41.60;100637.11;117058;1186;22920;-60
2022/08/09 07:27:40;;;;;;;7.20;5.50;;;;;;;33.85;41.52;100639.95;116990;1188;23579;-60
2022/08/09 07:30:12;;;;;;;10.60;5.10;;;;;;;33.94;41.69;100633.90;117086;1186;22792;-60
2022/08/09 07:32:39;;;;;;;7.70;5.40;;;;;;;34.11;41.46;100637.94;117065;1189;23487;-60
2022/08/09 07:35:10;;;;;;;6.10;5.40;;;;;;;34.28;40.99;100638.27;117021;1186;22648;-59
2022/08/09 07:37:42;;;;;;;7.30;5.40;;;;;;;34.33;40.80;100637.33;117046;1186;22928;-60
2022/08/09 07:40:13;;;;;;;5.70;5.00;;;;;;;34.32;40.81;100632.00;116955;1189;22828;-60
2022/08/09 07:43:10;;;;;;;8.80;5.30;;;;;;;34.40;40.65;100638.98;116891;1188;21869;-59
2022/08/09 07:45:43;;;;;;;8.10;6.00;;;;;;;34.46;40.41;100646.48;117098;1188;21875;-60
2022/08/09 07:48:11;;;;;;;7.40;5.50;;;;;;;34.45;40.20;100645.73;117062;1188;22919;-60
2022/08/09 07:50:57;;;;;;;7.40;4.80;;;;;;;34.34;39.94;100642.52;116977;1187;21964;-60
2022/08/09 07:53:45;;;;;;;6.00;5.00;;;;;;;34.14;39.69;100641.19;117005;1186;22927;-60
2022/08/09 07:56:32;;;;;;;12.90;4.70;;;;;;;33.98;39.75;100633.67;116850;1188;22928;-60
2022/08/09 07:59:02;;;;;;;6.00;5.00;;;;;;;33.96;39.81;100636.96;116891;1185;22929;-67
2022/08/09 08:01:40;;;;;;;8.90;5.20;;;;;;;33.92;39.85;100638.84;116838;1189;24141;-67
2022/08/09 08:04:08;;;;;;;6.30;4.80;;;;;;;33.93;39.88;100633.84;117045;1188;22988;-60
2022/08/09 08:06:36;;;;;;;29.90;6.60;;;;;;;34.04;39.83;100637.92;116972;1186;21915;-66
2022/08/09 08:09:21;;;;;;;9.80;4.90;;;;;;;34.27;39.85;100634.17;117005;1188;21855;-59
2022/08/09 08:12:08;;;;;;;8.60;4.70;;;;;;;34.58;39.86;100634.05;116907;1185;21874;-68
2022/08/09 08:14:56;;;;;;;7.30;5.00;;;;;;;35.00;39.42;100635.23;116947;1186;21857;-67
2022/08/09 08:17:25;;;;;;;7.50;4.20;;;;;;;35.38;39.03;100630.31;116996;1186;21884;-67
2022/08/09 08:20:13;;;;;;;7.00;4.40;;;;;;;35.68;38.48;100629.08;116982;1189;21864;-58
2022/08/09 08:22:40;;;;;;;9.50;4.80;;;;;;;35.95;37.99;100622.89;116822;1188;22893;-60
2022/08/09 08:25:08;;;;;;;7.50;4.90;;;;;;;36.18;37.67;100624.61;117019;1186;22921;-68
2022/08/09 08:27:39;;;;;;;8.40;4.10;;;;;;;36.33;37.88;100624.98;116793;1186;22327;-68
2022/08/09 08:30:10;;;;;;;6.60;4.50;;;;;;;36.58;37.95;100614.77;117052;1188;21921;-68
2022/08/09 08:32:37;;;;;;;5.20;4.00;;;;;;;36.89;37.55;100616.59;116978;1185;22930;-68
2022/08/09 08:35:20;;;;;;;7.80;3.80;;;;;;;37.17;36.92;100611.14;117012;1185;24164;-58
2022/08/09 08:37:49;;;;;;;6.80;3.60;;;;;;;37.34;36.59;100609.29;117061;1188;21990;-59
2022/08/09 08:40:31;;;;;;;9.60;4.10;;;;;;;37.47;36.10;100607.33;117027;1187;22916;-59
2022/08/09 08:43:01;;;;;;;4.30;3.70;;;;;;;37.53;36.06;100605.27;117028;1187;22630;-60
2022/08/09 08:45:41;;;;;;;5.50;3.50;;;;;;;37.78;35.93;100601.67;117108;1188;21896;-59
2022/08/09 08:48:17;;;;;;;8.70;3.30;;;;;;;37.97;35.20;100606.95;116934;1185;22099;-60
2022/08/09 08:50:46;;;;;;;5.40;3.30;;;;;;;38.08;35.04;100607.83;116933;1189;22163;-68
2022/08/09 08:53:18;;;;;;;6.30;3.60;;;;;;;38.22;34.97;100610.45;116882;1189;21867;-67
2022/08/09 08:55:47;;;;;;;;;;;;;;;38.43;34.61;100608.77;117095;1188;23430;-60
2022/08/09 08:58:18;;;;;;;7.70;3.50;;;;;;;38.68;34.49;100607.58;117047;1188;21851;-67
2022/08/09 09:00:53;;;;;;;7.40;3.30;;;;;;;38.94;34.20;100604.29;116911;1189;21980;-60
2022/08/09 09:03:24;;;;;;;7.10;3.30;;;;;;;39.12;33.97;100604.83;117017;1189;22911;-68
2022/08/09 09:06:05;;;;;;;4.90;3.30;;;;;;;39.27;33.16;100597.52;116933;1188;21860;-60
2022/08/09 09:08:38;;;;;;;10.10;3.50;;;;;;;39.29;32.86;100594.05;116897;1186;22982;-69
2022/08/09 09:11:07;;;;;;;7.40;3.40;;;;;;;39.34;32.25;100593.50;116978;1188;21860;-68
2022/08/09 09:13:43;;;;;;;7.30;2.80;;;;;;;39.38;32.59;100597.16;116921;1189;21853;-60
2022/08/09 09:16:26;;;;;;;7.20;3.10;;;;;;;39.45;31.99;100596.98;116909;1187;21858;-62
2022/08/09 09:19:03;;;;;;;8.10;4.00;;;;;;;39.55;32.04;100594.79;116948;1188;21855;-68
2022/08/09 09:22:02;;;;;;;6.90;3.40;;;;;;;39.63;31.83;100596.50;116988;1188;23557;-69
2022/08/09 09:24:36;;;;;;;5.40;3.10;;;;;;;39.79;31.81;100593.14;116905;1188;21903;-60
2022/08/09 09:27:06;;;;;;;5.20;3.20;;;;;;;40.05;31.63;100594.53;116938;1187;21963;-60
2022/08/09 09:29:39;;;;;;;5.10;3.10;;;;;;;40.26;31.32;100592.08;116941;1186;22750;-60
2022/08/09 09:32:28;;;;;;;8.20;3.00;;;;;;;40.58;31.55;100591.50;116828;1186;22922;-57
2022/08/09 09:35:02;;;;;;;6.50;3.00;;;;;;;40.85;30.70;100585.67;117078;1186;22928;-60
2022/08/09 09:37:35;;;;;;;6.20;3.10;;;;;;;41.15;30.59;100588.34;116984;1184;22323;-60
2022/08/09 09:40:07;;;;;;;7.70;2.90;;;;;;;41.38;30.18;100584.84;117050;1188;22271;-59
2022/08/09 09:42:35;;;;;;;3.60;2.70;;;;;;;41.47;30.24;100585.55;116934;1186;21930;-66
2022/08/09 09:45:08;;;;;;;5.10;2.80;;;;;;;41.67;29.90;100582.83;116870;1191;23024;-57
2022/08/09 09:47:44;;;;;;;7.00;2.80;;;;;;;41.84;29.47;100581.14;116902;1189;21857;-58
2022/08/09 09:50:44;;;;;;;5.90;2.60;;;;;;;42.01;29.05;100580.16;116793;1188;21876;-67
2022/08/09 09:53:19;;;;;;;5.90;2.60;;;;;;;42.15;28.67;100577.73;116961;1187;21874;-58
2022/08/09 09:55:51;;;;;;;7.60;2.50;;;;;;;42.34;28.75;100574.77;117046;1186;22622;-58
2022/08/09 09:58:44;;;;;;;3.80;2.40;;;;;;;42.61;28.68;100575.44;117003;1188;21867;-66
2022/08/09 10:01:19;;;;;;;6.40;2.80;;;;;;;42.84;27.86;100575.62;117007;1185;22999;-59
2022/08/09 10:04:24;;;;;;;5.90;2.90;;;;;;;42.88;27.45;100580.41;116995;1185;21854;-61
2022/08/09 10:06:57;;;;;;;7.20;2.70;;;;;;;42.85;27.25;100578.35;117063;1188;21864;-66
2022/08/09 10:09:50;;;;;;;7.70;2.90;;;;;;;42.77;27.18;100572.75;117178;1189;23042;-59
2022/08/09 10:12:26;;;;;;;5.20;2.40;;;;;;;42.80;27.13;100572.17;117107;1183;21880;-60
2022/08/09 10:15:06;;;;;;;10.20;3.10;;;;;;;42.88;27.04;100571.33;117203;1188;21949;-66
2022/08/09 10:17:46;;;;;;;7.60;2.60;;;;;;;43.03;26.56;100570.48;117151;1189;21859;-67
2022/08/09 10:20:26;;;;;;;8.40;3.00;;;;;;;43.05;26.51;100569.92;117002;1188;22100;-67
2022/08/09 10:23:17;;;;;;;5.70;2.80;;;;;;;43.14;26.19;100572.05;116921;1188;22918;-59
2022/08/09 10:25:47;;;;;;;4.00;2.60;;;;;;;43.15;25.90;100575.16;116950;1188;21865;-59
2022/08/09 10:28:35;;;;;;;7.50;2.60;;;;;;;43.18;25.60;100571.59;116840;1188;21858;-60
2022/08/09 10:31:03;;;;;;;4.90;2.50;;;;;;;43.04;25.38;100572.41;116987;1188;22930;-67
2022/08/09 10:33:50;;;;;;;8.90;2.80;;;;;;;42.93;25.52;100572.90;116996;1188;21879;-59
2022/08/09 10:36:38;;;;;;;4.40;2.50;;;;;;;43.02;25.80;100566.32;117077;1185;21867;-67
2022/08/09 10:39:09;;;;;;;4.70;2.30;;;;;;;43.17;25.28;100562.66;117070;1188;23475;-66
2022/08/09 10:41:42;;;;;;;7.70;2.60;;;;;;;43.11;25.29;100565.88;117071;1188;21892;-67
2022/08/09 10:44:10;;;;;;;5.80;2.80;;;;;;;43.07;25.02;100558.98;117158;1188;21856;-65
2022/08/09 10:46:57;;;;;;;7.30;3.30;;;;;;;43.11;24.93;100560.04;117079;1186;22108;-60
2022/08/09 10:49:44;;;;;;;8.40;2.80;;;;;;;43.21;25.23;100558.73;117059;1186;23036;-66
2022/08/09 10:52:57;;;;;;;6.90;2.70;;;;;;;43.43;25.12;100554.13;116885;1185;23477;-66
2022/08/09 10:55:27;;;;;;;7.90;2.90;;;;;;;43.60;24.96;100555.98;117120;1186;21965;-67
2022/08/09 10:58:31;;;;;;;7.50;3.10;;;;;;;43.65;24.65;100553.30;117062;1188;22945;-66
2022/08/09 11:01:01;;;;;;;9.60;3.00;;;;;;;43.66;24.75;100553.48;117046;1184;21865;-66
2022/08/09 11:04:13;;;;;;;6.60;3.00;;;;;;;43.79;24.76;100548.71;117080;1188;21926;-60
2022/08/09 11:06:56;;;;;;;5.20;3.50;;;;;;;43.76;24.29;100548.58;117036;1188;21866;-60
2022/08/09 11:09:38;;;;;;;6.20;3.60;;;;;;;43.59;24.48;100546.04;117003;1188;23465;-67
2022/08/09 11:12:23;;;;;;;6.20;3.10;;;;;;;43.43;24.32;100546.20;116988;1188;21980;-67
2022/08/09 11:15:22;;;;;;;4.50;2.90;;;;;;;43.25;24.27;100545.31;117068;1188;21852;-66
2022/08/09 11:17:59;;;;;;;7.80;2.80;;;;;;;43.27;24.65;100539.42;116983;1188;22327;-59
2022/08/09 11:20:48;;;;;;;5.20;3.00;;;;;;;43.49;24.62;100535.56;116930;1188;21858;-67
2022/08/09 11:23:16;;;;;;;4.90;3.20;;;;;;;43.73;24.55;100526.75;117013;1186;24174;-60
2022/08/09 11:25:49;;;;;;;7.10;3.10;;;;;;;43.91;24.35;100528.83;116925;1188;23454;-59
2022/08/09 11:28:37;;;;;;;6.60;2.90;;;;;;;43.86;23.97;100527.83;116853;1188;22982;-60
2022/08/09 11:31:39;;;;;;;5.70;2.50;;;;;;;43.68;23.97;100525.80;116861;1183;21913;-67
2022/08/09 11:34:41;;;;;;;6.00;2.90;;;;;;;43.60;24.01;100520.34;116828;1186;22972;-60
2022/08/09 11:37:10;;;;;;;3.70;2.80;;;;;;;43.58;23.90;100516.59;117027;1188;24151;-61
2022/08/09 11:40:04;;;;;;;5.70;2.80;;;;;;;43.51;23.72;100516.34;116864;1188;23455;-61
2022/08/09 11:42:42;;;;;;;7.60;2.90;;;;;;;43.60;23.83;100514.86;117068;1186;21858;-59
2022/08/09 11:45:20;;;;;;;7.00;2.90;;;;;;;43.79;23.67;100511.91;117022;1184;23509;-60
2022/08/09 11:48:10;;;;;;;5.30;2.70;;;;;;;43.90;23.56;100513.02;117017;1186;21880;-60
2022/08/09 11:51:09;;;;;;;7.50;2.70;;;;;;;43.92;23.27;100508.03;117074;1187;22922;-66
2022/08/09 11:54:16;;;;;;;7.10;3.00;;;;;;;43.82;23.31;100509.52;117021;1186;22962;-61
2022/08/09 11:57:33;;;;;;;7.20;3.10;;;;;;;43.93;23.63;100505.08;116985;1188;22998;-61
2022/08/09 12:00:21;;;;;;;3.90;2.40;;;;;;;44.16;23.58;100509.96;117007;1187;22663;-61
2022/08/09 12:02:55;;;;;;;7.90;2.70;;;;;;;44.37;23.33;100497.60;116913;1184;22927;-61
2022/08/09 12:05:31;;;;;;;4.20;2.40;;;;;;;44.50;22.55;100501.20;117018;1186;23557;-68